sensor_id;sensor_type;location;lat;lon;timestamp;P1;durP1;ratioP1;P2;durP2;ratioP2
9900;SDS011;4989;48.772;9.154;2023-02-18T00:00:03;0.90;;;0.90;;
9900;SDS011;4989;48.772;9.154;2023-02-18T00:05:06;0.90;;;0.90;;
9900;SDS011;4989;48.772;9.154;2023-02-18T00:10:12;1.90;;;0.80;;
9900;SDS011;4989;48.772;9.154;2023-02-18T00:15:16;0.93;;;0.80;;
9900;SDS011;4989;48.772;9.154;2023-02-18T00:20:18;0.90;;;0.90;;
9900;SDS011;4989;48.772;9.154;2023-02-18T00:25:21;1.27;;;0.73;;
9900;SDS011;4989;48.772;9.154;2023-02-18T00:30:26;0.70;;;0.70;;
9900;SDS011;4989;48.772;9.154;2023-02-18T00:35:29;1.40;;;1.30;;
9900;SDS011;4989;48.772;9.154;2023-02-18T00:40:32;0.80;;;0.80;;
9900;SDS011;4989;48.772;9.154;2023-02-18T00:45:37;0.63;;;0.63;;
9900;SDS011;4989;48.772;9.154;2023-02-18T00:50:40;1.70;;;0.73;;
9900;SDS011;4989;48.772;9.154;2023-02-18T00:55:43;0.90;;;0.90;;
9900;SDS011;4989;48.772;9.154;2023-02-18T01:00:48;1.00;;;0.80;;
9900;SDS011;4989;48.772;9.154;2023-02-18T01:05:51;1.33;;;1.33;;
9900;SDS011;4989;48.772;9.154;2023-02-18T01:10:55;1.00;;;0.90;;
9900;SDS011;4989;48.772;9.154;2023-02-18T01:15:59;0.87;;;0.87;;
9900;SDS011;4989;48.772;9.154;2023-02-18T01:21:03;0.80;;;0.80;;
9900;SDS011;4989;48.772;9.154;2023-02-18T01:26:09;1.00;;;1.00;;
9900;SDS011;4989;48.772;9.154;2023-02-18T01:31:13;0.77;;;0.77;;
9900;SDS011;4989;48.772;9.154;2023-02-18T01:36:17;0.93;;;0.93;;
9900;SDS011;4989;48.772;9.154;2023-02-18T01:41:20;1.00;;;1.00;;
9900;SDS011;4989;48.772;9.154;2023-02-18T01:46:22;2.47;;;1.07;;
9900;SDS011;4989;48.772;9.154;2023-02-18T01:51:26;0.90;;;0.90;;
9900;SDS011;4989;48.772;9.154;2023-02-18T01:56:38;0.90;;;0.90;;
9900;SDS011;4989;48.772;9.154;2023-02-18T02:01:53;1.20;;;1.20;;
9900;SDS011;4989;48.772;9.154;2023-02-18T02:06:57;1.60;;;1.20;;
9900;SDS011;4989;48.772;9.154;2023-02-18T02:12:14;0.83;;;0.83;;
9900;SDS011;4989;48.772;9.154;2023-02-18T02:44:50;1.20;;;1.20;;
9900;SDS011;4989;48.772;9.154;2023-02-18T02:55:14;1.20;;;1.20;;
9900;SDS011;4989;48.772;9.154;2023-02-18T03:00:25;1.10;;;1.10;;
9900;SDS011;4989;48.772;9.154;2023-02-18T03:06:07;1.07;;;1.00;;
9900;SDS011;4989;48.772;9.154;2023-02-18T03:11:23;1.00;;;1.00;;
9900;SDS011;4989;48.772;9.154;2023-02-18T03:16:52;1.20;;;1.10;;
9900;SDS011;4989;48.772;9.154;2023-02-18T03:22:10;1.07;;;0.97;;
9900;SDS011;4989;48.772;9.154;2023-02-18T03:32:34;1.10;;;1.10;;
9900;SDS011;4989;48.772;9.154;2023-02-18T03:37:38;1.17;;;0.97;;
9900;SDS011;4989;48.772;9.154;2023-02-18T03:43:03;2.10;;;1.50;;
9900;SDS011;4989;48.772;9.154;2023-02-18T03:48:05;0.97;;;0.97;;
9900;SDS011;4989;48.772;9.154;2023-02-18T03:53:08;1.00;;;1.00;;
9900;SDS011;4989;48.772;9.154;2023-02-18T03:58:11;0.90;;;0.90;;
9900;SDS011;4989;48.772;9.154;2023-02-18T04:03:13;1.00;;;1.00;;
9900;SDS011;4989;48.772;9.154;2023-02-18T04:08:16;0.87;;;0.87;;
9900;SDS011;4989;48.772;9.154;2023-02-18T04:13:18;0.90;;;0.90;;
9900;SDS011;4989;48.772;9.154;2023-02-18T04:18:21;0.80;;;0.80;;
9900;SDS011;4989;48.772;9.154;2023-02-18T04:23:24;0.90;;;0.90;;
9900;SDS011;4989;48.772;9.154;2023-02-18T04:28:26;0.90;;;0.90;;
9900;SDS011;4989;48.772;9.154;2023-02-18T04:33:29;1.00;;;1.00;;
9900;SDS011;4989;48.772;9.154;2023-02-18T04:38:32;1.33;;;1.23;;
9900;SDS011;4989;48.772;9.154;2023-02-18T04:43:34;1.10;;;1.10;;
9900;SDS011;4989;48.772;9.154;2023-02-18T04:48:37;1.77;;;1.10;;
9900;SDS011;4989;48.772;9.154;2023-02-18T04:53:39;1.60;;;1.10;;
9900;SDS011;4989;48.772;9.154;2023-02-18T04:58:41;1.00;;;1.00;;
9900;SDS011;4989;48.772;9.154;2023-02-18T05:03:44;0.93;;;0.93;;
9900;SDS011;4989;48.772;9.154;2023-02-18T05:08:47;0.80;;;0.80;;
9900;SDS011;4989;48.772;9.154;2023-02-18T05:13:49;0.90;;;0.90;;
9900;SDS011;4989;48.772;9.154;2023-02-18T05:18:51;1.40;;;1.30;;
9900;SDS011;4989;48.772;9.154;2023-02-18T05:23:54;1.30;;;1.13;;
9900;SDS011;4989;48.772;9.154;2023-02-18T05:28:57;1.00;;;1.00;;
9900;SDS011;4989;48.772;9.154;2023-02-18T05:34:00;0.70;;;0.70;;
9900;SDS011;4989;48.772;9.154;2023-02-18T05:39:02;1.13;;;0.83;;
9900;SDS011;4989;48.772;9.154;2023-02-18T05:44:04;1.10;;;1.00;;
9900;SDS011;4989;48.772;9.154;2023-02-18T05:49:26;1.00;;;1.00;;
9900;SDS011;4989;48.772;9.154;2023-02-18T05:54:30;0.97;;;0.97;;
9900;SDS011;4989;48.772;9.154;2023-02-18T05:59:33;1.03;;;1.00;;
9900;SDS011;4989;48.772;9.154;2023-02-18T06:04:35;1.10;;;1.10;;
9900;SDS011;4989;48.772;9.154;2023-02-18T06:09:37;1.17;;;1.17;;
9900;SDS011;4989;48.772;9.154;2023-02-18T06:14:40;0.93;;;0.93;;
9900;SDS011;4989;48.772;9.154;2023-02-18T06:19:43;1.27;;;1.00;;
9900;SDS011;4989;48.772;9.154;2023-02-18T06:24:46;1.10;;;0.97;;
9900;SDS011;4989;48.772;9.154;2023-02-18T06:29:48;1.20;;;1.10;;
9900;SDS011;4989;48.772;9.154;2023-02-18T06:34:51;1.20;;;1.10;;
9900;SDS011;4989;48.772;9.154;2023-02-18T06:39:53;1.30;;;1.20;;
9900;SDS011;4989;48.772;9.154;2023-02-18T06:44:56;1.20;;;1.20;;
9900;SDS011;4989;48.772;9.154;2023-02-18T06:49:59;1.00;;;1.00;;
9900;SDS011;4989;48.772;9.154;2023-02-18T06:55:01;0.93;;;0.93;;
9900;SDS011;4989;48.772;9.154;2023-02-18T07:00:05;1.17;;;1.07;;
9900;SDS011;4989;48.772;9.154;2023-02-18T07:05:08;1.10;;;1.10;;
9900;SDS011;4989;48.772;9.154;2023-02-18T07:10:11;1.20;;;1.00;;
9900;SDS011;4989;48.772;9.154;2023-02-18T07:15:13;1.00;;;1.00;;
9900;SDS011;4989;48.772;9.154;2023-02-18T07:20:16;1.77;;;1.67;;
9900;SDS011;4989;48.772;9.154;2023-02-18T07:25:19;1.40;;;1.30;;
9900;SDS011;4989;48.772;9.154;2023-02-18T07:30:24;1.57;;;1.33;;
9900;SDS011;4989;48.772;9.154;2023-02-18T07:35:27;1.60;;;1.50;;
9900;SDS011;4989;48.772;9.154;2023-02-18T07:40:29;1.40;;;1.30;;
9900;SDS011;4989;48.772;9.154;2023-02-18T07:45:32;1.40;;;1.30;;
9900;SDS011;4989;48.772;9.154;2023-02-18T07:50:37;1.40;;;1.30;;
9900;SDS011;4989;48.772;9.154;2023-02-18T07:55:44;1.60;;;1.40;;
9900;SDS011;4989;48.772;9.154;2023-02-18T08:00:49;1.70;;;1.60;;
9900;SDS011;4989;48.772;9.154;2023-02-18T08:05:54;1.30;;;1.20;;
9900;SDS011;4989;48.772;9.154;2023-02-18T08:10:58;1.83;;;1.50;;
9900;SDS011;4989;48.772;9.154;2023-02-18T08:16:19;1.47;;;1.37;;
9900;SDS011;4989;48.772;9.154;2023-02-18T08:21:23;1.40;;;1.30;;
9900;SDS011;4989;48.772;9.154;2023-02-18T08:26:26;3.50;;;1.30;;
9900;SDS011;4989;48.772;9.154;2023-02-18T08:31:29;1.30;;;1.20;;
9900;SDS011;4989;48.772;9.154;2023-02-18T08:36:32;1.40;;;1.30;;
9900;SDS011;4989;48.772;9.154;2023-02-18T08:41:36;1.47;;;1.20;;
9900;SDS011;4989;48.772;9.154;2023-02-18T08:46:38;2.10;;;1.33;;
9900;SDS011;4989;48.772;9.154;2023-02-18T08:51:41;1.53;;;1.43;;
9900;SDS011;4989;48.772;9.154;2023-02-18T08:56:44;1.00;;;1.00;;
9900;SDS011;4989;48.772;9.154;2023-02-18T09:01:46;1.43;;;0.90;;
9900;SDS011;4989;48.772;9.154;2023-02-18T09:06:49;1.10;;;1.10;;
9900;SDS011;4989;48.772;9.154;2023-02-18T09:11:52;1.17;;;1.17;;
9900;SDS011;4989;48.772;9.154;2023-02-18T09:16:55;1.10;;;1.00;;
9900;SDS011;4989;48.772;9.154;2023-02-18T09:21:59;1.10;;;1.10;;
9900;SDS011;4989;48.772;9.154;2023-02-18T09:27:02;1.20;;;1.10;;
9900;SDS011;4989;48.772;9.154;2023-02-18T09:32:05;1.10;;;1.10;;
9900;SDS011;4989;48.772;9.154;2023-02-18T09:37:09;1.07;;;1.07;;
9900;SDS011;4989;48.772;9.154;2023-02-18T09:42:12;1.00;;;0.90;;
9900;SDS011;4989;48.772;9.154;2023-02-18T09:47:20;1.37;;;1.27;;
9900;SDS011;4989;48.772;9.154;2023-02-18T09:52:28;1.63;;;0.90;;
9900;SDS011;4989;48.772;9.154;2023-02-18T10:02:54;1.07;;;1.00;;
9900;SDS011;4989;48.772;9.154;2023-02-18T10:08:49;1.20;;;1.10;;
9900;SDS011;4989;48.772;9.154;2023-02-18T10:13:51;1.10;;;1.00;;
9900;SDS011;4989;48.772;9.154;2023-02-18T10:18:58;1.30;;;1.13;;
9900;SDS011;4989;48.772;9.154;2023-02-18T10:29:15;1.63;;;1.20;;
9900;SDS011;4989;48.772;9.154;2023-02-18T10:34:45;1.13;;;1.00;;
9900;SDS011;4989;48.772;9.154;2023-02-18T10:50:32;1.30;;;1.20;;
9900;SDS011;4989;48.772;9.154;2023-02-18T10:55:41;1.70;;;0.77;;
9900;SDS011;4989;48.772;9.154;2023-02-18T11:00:45;3.90;;;0.93;;
9900;SDS011;4989;48.772;9.154;2023-02-18T11:05:49;1.23;;;1.10;;
9900;SDS011;4989;48.772;9.154;2023-02-18T11:10:57;1.17;;;0.90;;
9900;SDS011;4989;48.772;9.154;2023-02-18T11:16:10;0.90;;;0.90;;
9900;SDS011;4989;48.772;9.154;2023-02-18T11:26:38;1.10;;;1.00;;
9900;SDS011;4989;48.772;9.154;2023-02-18T11:31:43;0.80;;;0.80;;
9900;SDS011;4989;48.772;9.154;2023-02-18T11:36:48;0.70;;;0.70;;
9900;SDS011;4989;48.772;9.154;2023-02-18T11:42:02;0.90;;;0.90;;
9900;SDS011;4989;48.772;9.154;2023-02-18T11:52:19;0.80;;;0.80;;
9900;SDS011;4989;48.772;9.154;2023-02-18T11:57:27;1.17;;;1.07;;
9900;SDS011;4989;48.772;9.154;2023-02-18T12:02:35;0.93;;;0.90;;
9900;SDS011;4989;48.772;9.154;2023-02-18T12:13:27;1.40;;;0.80;;
9900;SDS011;4989;48.772;9.154;2023-02-18T12:18:46;1.00;;;1.00;;
9900;SDS011;4989;48.772;9.154;2023-02-18T12:24:31;0.80;;;0.80;;
9900;SDS011;4989;48.772;9.154;2023-02-18T13:02:47;1.73;;;1.40;;
9900;SDS011;4989;48.772;9.154;2023-02-18T13:13:09;1.40;;;1.30;;
9900;SDS011;4989;48.772;9.154;2023-02-18T13:19:01;1.50;;;1.40;;
9900;SDS011;4989;48.772;9.154;2023-02-18T13:23:52;1.40;;;1.30;;
9900;SDS011;4989;48.772;9.154;2023-02-18T13:40:00;3.27;;;1.40;;
9900;SDS011;4989;48.772;9.154;2023-02-18T13:45:05;1.70;;;1.60;;
9900;SDS011;4989;48.772;9.154;2023-02-18T14:01:20;2.27;;;1.77;;
9900;SDS011;4989;48.772;9.154;2023-02-18T14:17:41;1.17;;;1.07;;
9900;SDS011;4989;48.772;9.154;2023-02-18T14:22:49;1.73;;;1.63;;
9900;SDS011;4989;48.772;9.154;2023-02-18T14:27:53;1.60;;;1.50;;
9900;SDS011;4989;48.772;9.154;2023-02-18T14:32:56;2.83;;;1.60;;
9900;SDS011;4989;48.772;9.154;2023-02-18T14:54:29;1.50;;;1.40;;
9900;SDS011;4989;48.772;9.154;2023-02-18T14:59:39;1.60;;;1.50;;
9900;SDS011;4989;48.772;9.154;2023-02-18T15:04:44;4.33;;;1.40;;
9900;SDS011;4989;48.772;9.154;2023-02-18T15:09:48;1.50;;;1.40;;
9900;SDS011;4989;48.772;9.154;2023-02-18T15:14:55;1.93;;;1.43;;
9900;SDS011;4989;48.772;9.154;2023-02-18T15:20:04;1.97;;;1.40;;
9900;SDS011;4989;48.772;9.154;2023-02-18T15:25:10;1.50;;;1.40;;
9900;SDS011;4989;48.772;9.154;2023-02-18T15:30:20;1.40;;;1.30;;
9900;SDS011;4989;48.772;9.154;2023-02-18T15:35:32;1.50;;;1.40;;
9900;SDS011;4989;48.772;9.154;2023-02-18T15:40:34;1.57;;;1.30;;
9900;SDS011;4989;48.772;9.154;2023-02-18T15:45:41;2.10;;;1.73;;
9900;SDS011;4989;48.772;9.154;2023-02-18T15:50:53;1.60;;;1.50;;
9900;SDS011;4989;48.772;9.154;2023-02-18T15:56:35;1.33;;;1.30;;
9900;SDS011;4989;48.772;9.154;2023-02-18T16:01:40;1.17;;;1.17;;
9900;SDS011;4989;48.772;9.154;2023-02-18T16:06:48;2.37;;;1.47;;
9900;SDS011;4989;48.772;9.154;2023-02-18T16:11:56;1.50;;;1.40;;
9900;SDS011;4989;48.772;9.154;2023-02-18T16:33:04;2.03;;;1.33;;
9900;SDS011;4989;48.772;9.154;2023-02-18T16:38:06;1.33;;;1.23;;
9900;SDS011;4989;48.772;9.154;2023-02-18T16:43:16;1.20;;;1.10;;
9900;SDS011;4989;48.772;9.154;2023-02-18T16:53:34;1.60;;;1.50;;
9900;SDS011;4989;48.772;9.154;2023-02-18T16:58:37;2.17;;;1.60;;
9900;SDS011;4989;48.772;9.154;2023-02-18T17:03:39;1.60;;;1.50;;
9900;SDS011;4989;48.772;9.154;2023-02-18T17:08:42;1.30;;;1.20;;
9900;SDS011;4989;48.772;9.154;2023-02-18T17:13:44;1.60;;;1.50;;
9900;SDS011;4989;48.772;9.154;2023-02-18T17:18:48;1.60;;;1.50;;
9900;SDS011;4989;48.772;9.154;2023-02-18T17:23:51;1.73;;;1.40;;
9900;SDS011;4989;48.772;9.154;2023-02-18T17:28:54;1.50;;;1.40;;
9900;SDS011;4989;48.772;9.154;2023-02-18T17:34:00;1.60;;;1.50;;
9900;SDS011;4989;48.772;9.154;2023-02-18T17:39:10;1.47;;;1.37;;
9900;SDS011;4989;48.772;9.154;2023-02-18T17:44:15;1.70;;;1.60;;
9900;SDS011;4989;48.772;9.154;2023-02-18T17:49:22;2.00;;;1.60;;
9900;SDS011;4989;48.772;9.154;2023-02-18T17:54:25;1.73;;;1.63;;
9900;SDS011;4989;48.772;9.154;2023-02-18T17:59:28;1.70;;;1.60;;
9900;SDS011;4989;48.772;9.154;2023-02-18T18:04:31;1.43;;;1.33;;
9900;SDS011;4989;48.772;9.154;2023-02-18T18:09:33;1.63;;;1.53;;
9900;SDS011;4989;48.772;9.154;2023-02-18T18:14:36;5.50;;;2.10;;
9900;SDS011;4989;48.772;9.154;2023-02-18T18:19:39;1.70;;;1.60;;
9900;SDS011;4989;48.772;9.154;2023-02-18T18:24:41;2.57;;;1.87;;
9900;SDS011;4989;48.772;9.154;2023-02-18T18:29:43;2.40;;;1.83;;
9900;SDS011;4989;48.772;9.154;2023-02-18T18:34:46;1.60;;;1.50;;
9900;SDS011;4989;48.772;9.154;2023-02-18T18:39:49;1.77;;;1.53;;
9900;SDS011;4989;48.772;9.154;2023-02-18T18:44:51;1.97;;;1.77;;
9900;SDS011;4989;48.772;9.154;2023-02-18T18:49:53;2.17;;;1.70;;
9900;SDS011;4989;48.772;9.154;2023-02-18T18:54:55;1.70;;;1.60;;
9900;SDS011;4989;48.772;9.154;2023-02-18T18:59:58;2.03;;;1.80;;
9900;SDS011;4989;48.772;9.154;2023-02-18T19:05:01;3.07;;;1.77;;
9900;SDS011;4989;48.772;9.154;2023-02-18T19:10:04;1.70;;;1.60;;
9900;SDS011;4989;48.772;9.154;2023-02-18T19:15:14;1.70;;;1.60;;
9900;SDS011;4989;48.772;9.154;2023-02-18T19:20:22;1.80;;;1.70;;
9900;SDS011;4989;48.772;9.154;2023-02-18T19:25:29;3.77;;;2.00;;
9900;SDS011;4989;48.772;9.154;2023-02-18T19:30:33;1.70;;;1.60;;
9900;SDS011;4989;48.772;9.154;2023-02-18T19:35:37;1.47;;;1.37;;
9900;SDS011;4989;48.772;9.154;2023-02-18T19:40:41;1.90;;;1.50;;
9900;SDS011;4989;48.772;9.154;2023-02-18T19:45:46;1.97;;;1.87;;
9900;SDS011;4989;48.772;9.154;2023-02-18T19:50:48;1.80;;;1.70;;
9900;SDS011;4989;48.772;9.154;2023-02-18T19:56:00;2.47;;;1.90;;
9900;SDS011;4989;48.772;9.154;2023-02-18T20:01:13;2.03;;;1.93;;
9900;SDS011;4989;48.772;9.154;2023-02-18T20:06:18;3.00;;;1.47;;
9900;SDS011;4989;48.772;9.154;2023-02-18T20:11:21;1.63;;;1.53;;
9900;SDS011;4989;48.772;9.154;2023-02-18T20:16:23;2.23;;;2.00;;
9900;SDS011;4989;48.772;9.154;2023-02-18T20:21:25;2.00;;;1.80;;
9900;SDS011;4989;48.772;9.154;2023-02-18T20:26:28;2.70;;;1.90;;
9900;SDS011;4989;48.772;9.154;2023-02-18T20:31:31;1.83;;;1.73;;
9900;SDS011;4989;48.772;9.154;2023-02-18T20:36:34;1.93;;;1.83;;
9900;SDS011;4989;48.772;9.154;2023-02-18T20:41:37;1.77;;;1.67;;
9900;SDS011;4989;48.772;9.154;2023-02-18T20:46:40;2.10;;;1.90;;
9900;SDS011;4989;48.772;9.154;2023-02-18T20:51:44;1.73;;;1.63;;
9900;SDS011;4989;48.772;9.154;2023-02-18T20:56:47;1.60;;;1.50;;
9900;SDS011;4989;48.772;9.154;2023-02-18T21:01:51;2.07;;;1.83;;
9900;SDS011;4989;48.772;9.154;2023-02-18T21:06:53;1.77;;;1.67;;
9900;SDS011;4989;48.772;9.154;2023-02-18T21:11:56;2.47;;;1.87;;
9900;SDS011;4989;48.772;9.154;2023-02-18T21:16:59;1.80;;;1.70;;
9900;SDS011;4989;48.772;9.154;2023-02-18T21:22:04;1.80;;;1.70;;
9900;SDS011;4989;48.772;9.154;2023-02-18T21:27:06;2.33;;;2.10;;
9900;SDS011;4989;48.772;9.154;2023-02-18T21:32:09;5.80;;;3.40;;
9900;SDS011;4989;48.772;9.154;2023-02-18T21:37:11;1.77;;;1.67;;
9900;SDS011;4989;48.772;9.154;2023-02-18T21:42:14;1.60;;;1.50;;
9900;SDS011;4989;48.772;9.154;2023-02-18T21:47:16;1.80;;;1.70;;
9900;SDS011;4989;48.772;9.154;2023-02-18T21:52:19;1.53;;;1.43;;
9900;SDS011;4989;48.772;9.154;2023-02-18T21:57:21;2.00;;;1.77;;
9900;SDS011;4989;48.772;9.154;2023-02-18T22:02:26;2.37;;;2.27;;
9900;SDS011;4989;48.772;9.154;2023-02-18T22:07:32;2.17;;;1.70;;
9900;SDS011;4989;48.772;9.154;2023-02-18T22:12:35;1.50;;;1.40;;
9900;SDS011;4989;48.772;9.154;2023-02-18T22:17:38;1.70;;;1.60;;
9900;SDS011;4989;48.772;9.154;2023-02-18T22:22:41;1.70;;;1.60;;
9900;SDS011;4989;48.772;9.154;2023-02-18T22:27:43;3.07;;;2.77;;
9900;SDS011;4989;48.772;9.154;2023-02-18T22:32:46;1.70;;;1.60;;
9900;SDS011;4989;48.772;9.154;2023-02-18T22:37:49;2.13;;;1.90;;
9900;SDS011;4989;48.772;9.154;2023-02-18T22:42:51;1.67;;;1.57;;
9900;SDS011;4989;48.772;9.154;2023-02-18T22:47:55;1.83;;;1.73;;
9900;SDS011;4989;48.772;9.154;2023-02-18T22:52:58;1.80;;;1.70;;
9900;SDS011;4989;48.772;9.154;2023-02-18T22:58:00;2.30;;;2.20;;
9900;SDS011;4989;48.772;9.154;2023-02-18T23:03:03;2.27;;;2.00;;
9900;SDS011;4989;48.772;9.154;2023-02-18T23:08:06;2.10;;;2.00;;
9900;SDS011;4989;48.772;9.154;2023-02-18T23:13:08;2.13;;;1.93;;
9900;SDS011;4989;48.772;9.154;2023-02-18T23:18:11;2.00;;;1.87;;
9900;SDS011;4989;48.772;9.154;2023-02-18T23:23:15;2.00;;;1.90;;
9900;SDS011;4989;48.772;9.154;2023-02-18T23:28:18;2.20;;;2.00;;
9900;SDS011;4989;48.772;9.154;2023-02-18T23:33:20;2.03;;;1.80;;
9900;SDS011;4989;48.772;9.154;2023-02-18T23:38:23;2.70;;;1.93;;
9900;SDS011;4989;48.772;9.154;2023-02-18T23:43:28;2.20;;;2.00;;
9900;SDS011;4989;48.772;9.154;2023-02-18T23:48:34;2.60;;;2.37;;
9900;SDS011;4989;48.772;9.154;2023-02-18T23:53:39;2.03;;;1.93;;
9900;SDS011;4989;48.772;9.154;2023-02-18T23:58:43;2.87;;;1.87;;
